• Join FlightAware (Why Join?)
  • Login
  • US Flag 
12:25AM EST


 

Airport Tracker/Info


-or-


 

Live Flight TrackerFlight Track Log ✈ N412AB ✈ 23-Apr-2013 ✈ KGON - KPTK

Flight Track Log - Related Links

Times and Time Zones

All times are in EDT time to prevent confusion due to time zone crossing. See the N412AB flight status page for this flight to view local times or setup timezone preferences in your user account.

Time Position Orientation Groundspeed Altitude Reporting Facility
EDT Latitude Longitude Course Direction KTS MPH feet Rate Location/Type
06:00PM 41.4847 -72.0161 North 270 311 8,800  Level Boston Center
06:01PM 41.5492 -72.0019 North 265 305 10,000 1,800 Climbing Boston Center
06:02PM 41.6347 -71.9844 North 275 316 12,500 1,860 Climbing Boston Center
06:03PM 41.6953 -72.0536 320° Northwest 282 325 13,800 1,920 Climbing Boston Center
06:04PM 41.7728 -72.1700 312° West 315 362 16,800 2,220 Climbing Boston Center
06:05PM 41.8208 -72.2450 311° West 330 380 18,700 2,460 Climbing Boston Center
06:06PM 41.8939 -72.3508 313° West 343 395 21,800 2,880 Climbing Boston Center
06:07PM 41.9606 -72.4542 311° West 354 407 24,500 2,400 Climbing Boston Center
06:08PM 42.0272 -72.5547 312° West 359 413 26,600 1,920 Climbing Boston Center
06:09PM 42.0981 -72.6611 312° West 364 419 28,400 1,740 Climbing Boston Center
06:10PM 42.1728 -72.7733 312° West 385 443 30,100 1,680 Climbing Boston Center
06:11PM 42.2494 -72.8917 311° West 406 467 31,800 1,620 Climbing Boston Center
06:12PM 42.3511 -72.9794 327° Northwest 450 518 33,400 1,620 Climbing Boston Center
06:13PM 42.4675 -73.0425 338° Northwest 450 518 35,100 1,740 Climbing Boston Center
06:14PM 42.5861 -73.1056 339° North 450 518 36,900 1,860 Climbing Boston Center
06:15PM 42.7147 -73.1889 335° Northwest 455 524 38,900 1,500 Climbing Boston Center
06:16PM 42.8311 -73.2525 338° Northwest 455 524 40,000 540 Climbing Boston Center
06:17PM 42.9347 -73.3250 333° Northwest 442 509 40,000  Level Boston Center
06:19PM 42.9922 -73.4308 307° West 417 480 40,000  Level Boston Center
06:20PM 43.0114 -73.5986 279° West 361 415 40,000  Level Boston Center
06:21PM 43.0203 -73.7408 275° West 361 415 40,000  Level Boston Center
06:22PM 43.0294 -73.8572 276° West 373 429 40,000  Level Boston Center
06:23PM 43.0394 -74.0308 275° West 383 441 40,000  Level Boston Center
06:24PM 43.0478 -74.1731 275° West 388 447 40,000  Level Boston Center
06:25PM 43.0581 -74.3214 275° West 388 447 40,000  Level Boston Center
06:26PM 43.0681 -74.4636 276° West 388 447 40,000  Level Boston Center
06:27PM 43.0758 -74.6061 274° West 383 441 40,000  Level Boston Center
06:28PM 43.0856 -74.7486 275° West 383 441 40,000  Level Boston Center
06:29PM 43.0931 -74.8939 274° West 383 441 40,000  Level Boston Center
06:30PM 43.1003 -75.0392 274° West 388 447 40,000  Level Boston Center
06:31PM 43.1072 -75.1903 274° West 388 447 40,000  Level Boston Center
06:32PM 43.1178 -75.3500 275° West 388 447 40,000  Level Boston Center
06:33PM 43.1267 -75.4900 275° West 388 447 40,000  Level Boston Center
06:34PM 43.1333 -75.6269 274° West 382 440 40,000  Level Boston Center
06:35PM 43.1378 -75.7608 273° West 364 419 40,000  Level Boston Center
06:36PM 43.1461 -75.8981 275° West 364 419 40,000  Level Boston Center
06:38PM 43.1583 -76.2425 273° West 372 428 40,000  Level Cleveland Center
06:39PM 43.1447 -76.3858 263° West 377 434 40,000  Level Cleveland Center
06:40PM 43.1331 -76.5261 264° West 377 434 40,000  Level Cleveland Center
06:41PM 43.1211 -76.6633 263° West 377 434 40,000  Level Cleveland Center
06:42PM 43.1089 -76.7922 263° West 377 434 40,000  Level Cleveland Center
06:43PM 43.0967 -76.9322 263° West 377 434 40,000  Level Cleveland Center
06:44PM 43.0864 -77.0694 264° West 372 428 40,000  Level Cleveland Center
06:45PM 43.0697 -77.2125 261° West 372 428 40,000  Level Cleveland Center
06:46PM 43.0572 -77.3581 263° West 378 435 40,000  Level Cleveland Center
06:47PM 43.0422 -77.5008 262° West 383 441 40,000  Level Cleveland Center
06:48PM 43.0314 -77.6436 264° West 388 447 40,000  Level Cleveland Center
06:49PM 43.0161 -77.7861 262° West 388 447 40,000  Level Cleveland Center
06:50PM 43.0031 -77.9317 263° West 393 452 40,000  Level Cleveland Center
06:51PM 42.9875 -78.0742 262° West 388 447 40,000  Level Cleveland Center
06:52PM 42.9706 -78.2594 263° West 388 447 40,000 -60 Level Cleveland Center
06:53PM 42.9564 -78.3989 262° West 388 447 39,900 -840 Descending Cleveland Center
06:54PM 42.9422 -78.5328 262° West 377 434 38,400 -1,380 Descending Cleveland Center
06:55PM 42.9319 -78.6578 264° West 359 413 37,200 -1,200 Descending Cleveland Center
06:56PM 42.9381 -78.7767 274° West 339 390 36,000 -1,200 Descending Cleveland Center
06:57PM 42.9439 -78.9014 274° West 326 375 34,800 -1,080 Descending Cleveland Center
06:58PM 42.9333 -79.0000 262° West 330 380 34,000 -420 Descending Toronto Center
06:59PM 42.9500 -79.1167 281° West 330 380 34,000  Level Toronto Center
07:00PM 42.9500 -79.2500 270° West 340 391 34,000  Level Toronto Center
07:01PM 42.9667 -79.3833 280° West 340 391 34,000  Level Toronto Center
07:02PM 42.9667 -79.5000 270° West 330 380 34,000 -300 Level Toronto Center
07:03PM 42.9667 -79.6333 270° West 330 380 33,500 -840 Descending Toronto Center
07:04PM 42.9833 -79.7500 281° West 330 380 32,400 -1,260 Descending Toronto Center
07:05PM 42.9833 -79.8833 270° West 350 403 31,000 -1,440 Descending Toronto Center
07:06PM 42.9833 -80.0167 270° West 360 414 29,600 -1,500 Descending Toronto Center
07:07PM 42.9667 -80.1500 260° West 370 426 28,100 -1,500 Descending Toronto Center
07:08PM 42.9500 -80.3167 262° West 380 437 26,600 -1,500 Descending Toronto Center
07:09PM 42.9500 -80.4500 270° West 380 437 25,100 -1,320 Descending Toronto Center
07:10PM 42.9333 -80.5833 260° West 370 426 24,000 -600 Descending Toronto Center
07:11PM 42.9333 -80.7333 270° West 360 414 24,000  Level Toronto Center
07:12PM 42.9000 -80.8833 253° West 370 426 24,000 -120 Level Toronto Center
07:13PM 42.9000 -81.0167 270° West 370 426 23,800 -1,020 Descending Toronto Center
07:14PM 42.8833 -81.1333 259° West 360 414 22,000 -1,860 Descending Toronto Center
07:15PM 42.8667 -81.2667 260° West 360 414 20,100 -1,860 Descending Toronto Center
07:16PM 42.8667 -81.4000 270° West 350 403 18,300 -1,680 Descending Toronto Center
07:16PM 42.8739 -81.4500 281° West 353 406 18,000 -1,680 Descending Cleveland Center
07:17PM 42.8622 -81.5775 263° West 342 394 16,200 -1,800 Descending Cleveland Center
07:18PM 42.8528 -81.6933 264° West 332 382 14,400 -1,620 Descending Cleveland Center
07:19PM 42.8433 -81.8092 264° West 315 362 13,000 -1,200 Descending Cleveland Center
07:20PM 42.8339 -81.9253 264° West 315 362 12,000 -600 Descending Cleveland Center
07:21PM 42.8178 -82.0381 259° West 315 362 11,800 -900 Descending Cleveland Center
07:22PM 42.7894 -82.1364 249° West 303 349 10,200 -1,620 Descending Cleveland Center
07:23PM 42.7714 -82.2294 255° West 283 326 8,600 -1,620 Descending Cleveland Center
07:24PM 42.7700 -82.3225 269° West 264 304 7,000 -1,320 Descending Cleveland Center
07:25PM 42.7625 -82.4100 263° West 252 290 6,000 -540 Descending Cleveland Center
07:26PM 42.7589 -82.5006 267° West 247 284 6,000  Level Cleveland Center
07:27PM 42.7553 -82.5992 267° West 213 245 6,100 60 Climbing Cleveland Center
07:28PM 42.7567 -82.6306 273° West 215 247 6,100  Level Cleveland Center
07:29PM 42.7450 -82.7036 258° West 213 245 6,100  Level Cleveland Center